sensor_id;sensor_type;location;lat;lon;timestamp;P1;durP1;ratioP1;P2;durP2;ratioP2
38683;SDS011;24910;53.248;-6.134;2022-11-28T00:00:09;21.42;;;3.45;;
38683;SDS011;24910;53.248;-6.134;2022-11-28T00:02:40;17.00;;;3.15;;
38683;SDS011;24910;53.248;-6.134;2022-11-28T00:05:09;18.10;;;2.83;;
38683;SDS011;24910;53.248;-6.134;2022-11-28T00:07:41;15.57;;;2.40;;
38683;SDS011;24910;53.248;-6.134;2022-11-28T00:10:10;15.48;;;2.72;;
38683;SDS011;24910;53.248;-6.134;2022-11-28T00:12:39;12.88;;;2.60;;
38683;SDS011;24910;53.248;-6.134;2022-11-28T00:15:09;15.77;;;2.35;;
38683;SDS011;24910;53.248;-6.134;2022-11-28T00:17:39;12.77;;;2.37;;
38683;SDS011;24910;53.248;-6.134;2022-11-28T00:20:08;18.90;;;2.80;;
38683;SDS011;24910;53.248;-6.134;2022-11-28T00:22:37;19.27;;;2.90;;
38683;SDS011;24910;53.248;-6.134;2022-11-28T00:25:08;18.85;;;2.60;;
38683;SDS011;24910;53.248;-6.134;2022-11-28T00:27:37;13.02;;;2.97;;
38683;SDS011;24910;53.248;-6.134;2022-11-28T00:30:06;16.88;;;2.55;;
38683;SDS011;24910;53.248;-6.134;2022-11-28T00:32:36;13.27;;;2.92;;
38683;SDS011;24910;53.248;-6.134;2022-11-28T00:35:05;18.50;;;3.17;;
38683;SDS011;24910;53.248;-6.134;2022-11-28T00:37:35;15.60;;;2.83;;
38683;SDS011;24910;53.248;-6.134;2022-11-28T00:40:04;19.48;;;2.80;;
38683;SDS011;24910;53.248;-6.134;2022-11-28T00:42:35;15.77;;;2.47;;
38683;SDS011;24910;53.248;-6.134;2022-11-28T00:45:05;14.60;;;2.33;;
38683;SDS011;24910;53.248;-6.134;2022-11-28T00:47:34;16.27;;;2.65;;
38683;SDS011;24910;53.248;-6.134;2022-11-28T00:50:04;14.55;;;2.50;;
38683;SDS011;24910;53.248;-6.134;2022-11-28T00:52:34;16.73;;;2.47;;
38683;SDS011;24910;53.248;-6.134;2022-11-28T00:55:03;17.00;;;2.55;;
38683;SDS011;24910;53.248;-6.134;2022-11-28T00:57:32;15.40;;;2.63;;
38683;SDS011;24910;53.248;-6.134;2022-11-28T01:00:03;13.20;;;2.50;;
38683;SDS011;24910;53.248;-6.134;2022-11-28T01:02:34;19.17;;;3.42;;
38683;SDS011;24910;53.248;-6.134;2022-11-28T01:05:03;13.82;;;1.98;;
38683;SDS011;24910;53.248;-6.134;2022-11-28T01:07:33;16.63;;;2.58;;
38683;SDS011;24910;53.248;-6.134;2022-11-28T01:10:02;14.02;;;2.20;;
38683;SDS011;24910;53.248;-6.134;2022-11-28T01:12:32;15.18;;;2.08;;
38683;SDS011;24910;53.248;-6.134;2022-11-28T01:15:02;11.27;;;2.20;;
38683;SDS011;24910;53.248;-6.134;2022-11-28T01:17:32;15.93;;;2.53;;
38683;SDS011;24910;53.248;-6.134;2022-11-28T01:20:01;16.02;;;2.20;;
38683;SDS011;24910;53.248;-6.134;2022-11-28T01:22:30;14.55;;;2.10;;
38683;SDS011;24910;53.248;-6.134;2022-11-28T01:25:00;8.73;;;1.98;;
38683;SDS011;24910;53.248;-6.134;2022-11-28T01:27:29;11.45;;;2.53;;
38683;SDS011;24910;53.248;-6.134;2022-11-28T01:29:58;13.88;;;2.20;;
38683;SDS011;24910;53.248;-6.134;2022-11-28T01:32:29;12.38;;;1.85;;
38683;SDS011;24910;53.248;-6.134;2022-11-28T01:34:58;14.87;;;2.13;;
38683;SDS011;24910;53.248;-6.134;2022-11-28T01:37:27;20.17;;;2.47;;
38683;SDS011;24910;53.248;-6.134;2022-11-28T01:39:56;18.65;;;2.67;;
38683;SDS011;24910;53.248;-6.134;2022-11-28T01:42:25;28.10;;;3.47;;
38683;SDS011;24910;53.248;-6.134;2022-11-28T01:45:10;20.67;;;2.63;;
38683;SDS011;24910;53.248;-6.134;2022-11-28T01:47:44;18.55;;;3.05;;
38683;SDS011;24910;53.248;-6.134;2022-11-28T01:50:14;15.52;;;2.42;;
38683;SDS011;24910;53.248;-6.134;2022-11-28T01:52:44;16.05;;;2.22;;
38683;SDS011;24910;53.248;-6.134;2022-11-28T01:55:17;14.77;;;2.50;;
38683;SDS011;24910;53.248;-6.134;2022-11-28T01:57:49;20.38;;;2.10;;
38683;SDS011;24910;53.248;-6.134;2022-11-28T02:00:21;20.50;;;2.60;;
38683;SDS011;24910;53.248;-6.134;2022-11-28T02:02:53;21.80;;;2.28;;
38683;SDS011;24910;53.248;-6.134;2022-11-28T02:05:26;15.00;;;2.50;;
38683;SDS011;24910;53.248;-6.134;2022-11-28T02:07:56;19.17;;;2.67;;
38683;SDS011;24910;53.248;-6.134;2022-11-28T02:10:25;16.02;;;2.55;;
38683;SDS011;24910;53.248;-6.134;2022-11-28T02:13:10;20.23;;;3.25;;
38683;SDS011;24910;53.248;-6.134;2022-11-28T02:15:58;22.10;;;2.45;;
38683;SDS011;24910;53.248;-6.134;2022-11-28T02:19:00;17.48;;;2.70;;
38683;SDS011;24910;53.248;-6.134;2022-11-28T02:21:47;26.38;;;4.85;;
38683;SDS011;24910;53.248;-6.134;2022-11-28T02:24:30;24.85;;;5.38;;
38683;SDS011;24910;53.248;-6.134;2022-11-28T02:27:54;26.60;;;3.40;;
38683;SDS011;24910;53.248;-6.134;2022-11-28T02:30:56;19.58;;;3.33;;
38683;SDS011;24910;53.248;-6.134;2022-11-28T02:33:40;22.45;;;2.72;;
38683;SDS011;24910;53.248;-6.134;2022-11-28T02:36:13;16.17;;;2.45;;
38683;SDS011;24910;53.248;-6.134;2022-11-28T02:38:51;18.73;;;2.30;;
38683;SDS011;24910;53.248;-6.134;2022-11-28T02:41:27;17.98;;;3.17;;
38683;SDS011;24910;53.248;-6.134;2022-11-28T02:44:03;16.25;;;2.22;;
38683;SDS011;24910;53.248;-6.134;2022-11-28T02:46:43;20.23;;;2.35;;
38683;SDS011;24910;53.248;-6.134;2022-11-28T02:49:20;10.63;;;1.85;;
38683;SDS011;24910;53.248;-6.134;2022-11-28T02:51:52;13.93;;;1.80;;
38683;SDS011;24910;53.248;-6.134;2022-11-28T02:54:25;16.85;;;2.55;;
38683;SDS011;24910;53.248;-6.134;2022-11-28T02:56:57;18.60;;;3.00;;
38683;SDS011;24910;53.248;-6.134;2022-11-28T02:59:31;15.40;;;2.35;;
38683;SDS011;24910;53.248;-6.134;2022-11-28T03:02:13;13.07;;;2.28;;
38683;SDS011;24910;53.248;-6.134;2022-11-28T03:04:49;14.00;;;2.35;;
38683;SDS011;24910;53.248;-6.134;2022-11-28T03:07:28;19.08;;;3.08;;
38683;SDS011;24910;53.248;-6.134;2022-11-28T03:10:13;19.52;;;2.45;;
38683;SDS011;24910;53.248;-6.134;2022-11-28T03:12:53;19.50;;;2.60;;
38683;SDS011;24910;53.248;-6.134;2022-11-28T03:15:34;19.48;;;2.92;;
38683;SDS011;24910;53.248;-6.134;2022-11-28T03:18:12;17.73;;;2.38;;
38683;SDS011;24910;53.248;-6.134;2022-11-28T03:20:48;15.23;;;2.35;;
38683;SDS011;24910;53.248;-6.134;2022-11-28T03:23:22;17.00;;;2.28;;
38683;SDS011;24910;53.248;-6.134;2022-11-28T03:26:00;21.27;;;2.40;;
38683;SDS011;24910;53.248;-6.134;2022-11-28T03:28:37;18.63;;;2.17;;
38683;SDS011;24910;53.248;-6.134;2022-11-28T03:31:13;12.32;;;2.42;;
38683;SDS011;24910;53.248;-6.134;2022-11-28T03:33:45;14.25;;;2.63;;
38683;SDS011;24910;53.248;-6.134;2022-11-28T03:36:20;18.85;;;2.63;;
38683;SDS011;24910;53.248;-6.134;2022-11-28T03:38:53;25.02;;;3.58;;
38683;SDS011;24910;53.248;-6.134;2022-11-28T03:41:27;14.85;;;2.50;;
38683;SDS011;24910;53.248;-6.134;2022-11-28T03:44:00;14.60;;;2.35;;
38683;SDS011;24910;53.248;-6.134;2022-11-28T03:46:31;22.13;;;2.95;;
38683;SDS011;24910;53.248;-6.134;2022-11-28T03:49:04;19.02;;;2.38;;
38683;SDS011;24910;53.248;-6.134;2022-11-28T03:51:38;19.90;;;2.67;;
38683;SDS011;24910;53.248;-6.134;2022-11-28T03:54:12;10.80;;;1.88;;
38683;SDS011;24910;53.248;-6.134;2022-11-28T03:56:51;19.75;;;2.53;;
38683;SDS011;24910;53.248;-6.134;2022-11-28T03:59:25;17.65;;;2.58;;
38683;SDS011;24910;53.248;-6.134;2022-11-28T04:02:00;19.30;;;2.30;;
38683;SDS011;24910;53.248;-6.134;2022-11-28T04:04:34;17.73;;;2.63;;
38683;SDS011;24910;53.248;-6.134;2022-11-28T04:07:13;21.33;;;2.85;;
38683;SDS011;24910;53.248;-6.134;2022-11-28T04:09:50;21.77;;;2.53;;
38683;SDS011;24910;53.248;-6.134;2022-11-28T04:12:30;17.33;;;2.20;;
38683;SDS011;24910;53.248;-6.134;2022-11-28T04:15:08;17.65;;;2.33;;
38683;SDS011;24910;53.248;-6.134;2022-11-28T04:17:44;18.90;;;2.83;;
38683;SDS011;24910;53.248;-6.134;2022-11-28T04:20:20;15.20;;;1.80;;
38683;SDS011;24910;53.248;-6.134;2022-11-28T04:22:58;20.05;;;3.08;;
38683;SDS011;24910;53.248;-6.134;2022-11-28T04:25:33;15.35;;;1.67;;
38683;SDS011;24910;53.248;-6.134;2022-11-28T04:28:06;18.95;;;2.67;;
38683;SDS011;24910;53.248;-6.134;2022-11-28T04:30:39;20.77;;;2.20;;
38683;SDS011;24910;53.248;-6.134;2022-11-28T04:33:12;15.52;;;1.90;;
38683;SDS011;24910;53.248;-6.134;2022-11-28T04:35:44;10.40;;;1.25;;
38683;SDS011;24910;53.248;-6.134;2022-11-28T04:38:18;12.52;;;1.75;;
38683;SDS011;24910;53.248;-6.134;2022-11-28T04:40:50;13.90;;;1.88;;
38683;SDS011;24910;53.248;-6.134;2022-11-28T04:43:23;6.53;;;1.40;;
38683;SDS011;24910;53.248;-6.134;2022-11-28T04:45:57;19.27;;;2.28;;
38683;SDS011;24910;53.248;-6.134;2022-11-28T04:48:31;12.27;;;1.67;;
38683;SDS011;24910;53.248;-6.134;2022-11-28T04:51:05;15.88;;;1.60;;
38683;SDS011;24910;53.248;-6.134;2022-11-28T04:53:44;14.57;;;2.05;;
38683;SDS011;24910;53.248;-6.134;2022-11-28T04:56:19;12.05;;;1.65;;
38683;SDS011;24910;53.248;-6.134;2022-11-28T04:58:52;16.02;;;1.77;;
38683;SDS011;24910;53.248;-6.134;2022-11-28T05:01:23;13.60;;;1.35;;
38683;SDS011;24910;53.248;-6.134;2022-11-28T05:03:54;8.35;;;1.55;;
38683;SDS011;24910;53.248;-6.134;2022-11-28T05:06:24;13.80;;;1.98;;
38683;SDS011;24910;53.248;-6.134;2022-11-28T05:08:56;10.35;;;1.90;;
38683;SDS011;24910;53.248;-6.134;2022-11-28T05:11:25;13.02;;;1.67;;
38683;SDS011;24910;53.248;-6.134;2022-11-28T05:13:55;10.07;;;1.40;;
38683;SDS011;24910;53.248;-6.134;2022-11-28T05:16:24;9.50;;;1.40;;
38683;SDS011;24910;53.248;-6.134;2022-11-28T05:18:53;9.45;;;1.50;;
38683;SDS011;24910;53.248;-6.134;2022-11-28T05:21:22;11.00;;;1.85;;
38683;SDS011;24910;53.248;-6.134;2022-11-28T05:23:52;12.85;;;1.92;;
38683;SDS011;24910;53.248;-6.134;2022-11-28T05:26:22;11.70;;;2.45;;
38683;SDS011;24910;53.248;-6.134;2022-11-28T05:31:20;9.07;;;1.13;;
38683;SDS011;24910;53.248;-6.134;2022-11-28T05:33:49;10.38;;;1.63;;
38683;SDS011;24910;53.248;-6.134;2022-11-28T05:36:18;10.88;;;1.73;;
38683;SDS011;24910;53.248;-6.134;2022-11-28T05:38:48;8.13;;;1.70;;
38683;SDS011;24910;53.248;-6.134;2022-11-28T05:41:17;8.25;;;1.98;;
38683;SDS011;24910;53.248;-6.134;2022-11-28T05:43:48;10.85;;;1.65;;
38683;SDS011;24910;53.248;-6.134;2022-11-28T05:46:18;8.05;;;1.52;;
38683;SDS011;24910;53.248;-6.134;2022-11-28T05:48:47;8.93;;;1.27;;
38683;SDS011;24910;53.248;-6.134;2022-11-28T05:51:16;9.57;;;1.48;;
38683;SDS011;24910;53.248;-6.134;2022-11-28T05:53:45;7.82;;;1.52;;
38683;SDS011;24910;53.248;-6.134;2022-11-28T05:56:15;10.55;;;1.83;;
38683;SDS011;24910;53.248;-6.134;2022-11-28T05:58:50;7.88;;;1.20;;
38683;SDS011;24910;53.248;-6.134;2022-11-28T06:01:22;10.45;;;1.30;;
38683;SDS011;24910;53.248;-6.134;2022-11-28T06:03:52;7.85;;;1.63;;
38683;SDS011;24910;53.248;-6.134;2022-11-28T06:06:26;8.27;;;1.20;;
38683;SDS011;24910;53.248;-6.134;2022-11-28T06:08:57;4.40;;;1.30;;
38683;SDS011;24910;53.248;-6.134;2022-11-28T06:11:27;6.60;;;1.52;;
38683;SDS011;24910;53.248;-6.134;2022-11-28T06:13:59;8.93;;;1.60;;
38683;SDS011;24910;53.248;-6.134;2022-11-28T06:18:59;7.68;;;1.38;;
38683;SDS011;24910;53.248;-6.134;2022-11-28T06:21:30;8.23;;;1.83;;
38683;SDS011;24910;53.248;-6.134;2022-11-28T06:24:00;8.27;;;1.25;;
38683;SDS011;24910;53.248;-6.134;2022-11-28T06:26:29;9.57;;;1.77;;
38683;SDS011;24910;53.248;-6.134;2022-11-28T06:28:59;6.55;;;1.08;;
38683;SDS011;24910;53.248;-6.134;2022-11-28T06:31:28;8.70;;;1.40;;
38683;SDS011;24910;53.248;-6.134;2022-11-28T06:33:57;10.27;;;1.27;;
38683;SDS011;24910;53.248;-6.134;2022-11-28T06:36:26;12.35;;;1.65;;
38683;SDS011;24910;53.248;-6.134;2022-11-28T06:38:56;4.65;;;1.08;;
38683;SDS011;24910;53.248;-6.134;2022-11-28T06:41:25;5.43;;;1.52;;
38683;SDS011;24910;53.248;-6.134;2022-11-28T06:43:56;8.48;;;1.30;;
38683;SDS011;24910;53.248;-6.134;2022-11-28T06:46:27;7.15;;;1.10;;
38683;SDS011;24910;53.248;-6.134;2022-11-28T06:48:56;8.25;;;1.85;;
38683;SDS011;24910;53.248;-6.134;2022-11-28T06:51:25;6.53;;;1.33;;
38683;SDS011;24910;53.248;-6.134;2022-11-28T06:53:54;7.15;;;1.42;;
38683;SDS011;24910;53.248;-6.134;2022-11-28T06:56:23;7.63;;;1.30;;
38683;SDS011;24910;53.248;-6.134;2022-11-28T06:58:52;9.40;;;1.50;;
38683;SDS011;24910;53.248;-6.134;2022-11-28T07:01:23;10.52;;;1.40;;
38683;SDS011;24910;53.248;-6.134;2022-11-28T07:03:55;6.40;;;1.00;;
38683;SDS011;24910;53.248;-6.134;2022-11-28T07:06:25;6.70;;;1.23;;
38683;SDS011;24910;53.248;-6.134;2022-11-28T07:08:55;7.60;;;1.35;;
38683;SDS011;24910;53.248;-6.134;2022-11-28T07:11:25;8.23;;;1.42;;
38683;SDS011;24910;53.248;-6.134;2022-11-28T07:13:56;8.63;;;1.63;;
38683;SDS011;24910;53.248;-6.134;2022-11-28T07:18:58;7.32;;;1.35;;
38683;SDS011;24910;53.248;-6.134;2022-11-28T07:21:28;10.93;;;1.80;;
38683;SDS011;24910;53.248;-6.134;2022-11-28T07:23:58;4.85;;;1.17;;
38683;SDS011;24910;53.248;-6.134;2022-11-28T07:26:27;7.68;;;1.63;;
38683;SDS011;24910;53.248;-6.134;2022-11-28T07:28:56;7.28;;;1.50;;
38683;SDS011;24910;53.248;-6.134;2022-11-28T07:31:26;9.55;;;1.60;;
38683;SDS011;24910;53.248;-6.134;2022-11-28T07:34:00;9.50;;;1.80;;
38683;SDS011;24910;53.248;-6.134;2022-11-28T07:36:30;10.48;;;1.92;;
38683;SDS011;24910;53.248;-6.134;2022-11-28T07:39:00;8.30;;;1.20;;
38683;SDS011;24910;53.248;-6.134;2022-11-28T07:44:00;11.48;;;1.77;;
38683;SDS011;24910;53.248;-6.134;2022-11-28T07:46:30;7.18;;;1.70;;
38683;SDS011;24910;53.248;-6.134;2022-11-28T07:49:01;8.20;;;1.38;;
38683;SDS011;24910;53.248;-6.134;2022-11-28T07:54:01;7.60;;;1.83;;
38683;SDS011;24910;53.248;-6.134;2022-11-28T07:56:32;6.63;;;1.65;;
38683;SDS011;24910;53.248;-6.134;2022-11-28T07:59:22;7.03;;;1.60;;
38683;SDS011;24910;53.248;-6.134;2022-11-28T08:01:51;7.13;;;1.63;;
38683;SDS011;24910;53.248;-6.134;2022-11-28T08:04:22;7.38;;;1.50;;
38683;SDS011;24910;53.248;-6.134;2022-11-28T08:06:51;8.93;;;1.38;;
38683;SDS011;24910;53.248;-6.134;2022-11-28T08:09:21;5.82;;;1.52;;
38683;SDS011;24910;53.248;-6.134;2022-11-28T08:11:50;7.68;;;1.58;;
38683;SDS011;24910;53.248;-6.134;2022-11-28T08:14:20;7.18;;;1.80;;
38683;SDS011;24910;53.248;-6.134;2022-11-28T08:16:49;10.77;;;1.83;;
38683;SDS011;24910;53.248;-6.134;2022-11-28T08:19:18;8.48;;;1.77;;
38683;SDS011;24910;53.248;-6.134;2022-11-28T08:21:52;8.20;;;2.20;;
38683;SDS011;24910;53.248;-6.134;2022-11-28T08:24:21;5.47;;;1.43;;
38683;SDS011;24910;53.248;-6.134;2022-11-28T08:26:50;8.75;;;1.73;;
38683;SDS011;24910;53.248;-6.134;2022-11-28T08:29:20;8.95;;;1.25;;
38683;SDS011;24910;53.248;-6.134;2022-11-28T08:31:49;7.25;;;1.67;;
38683;SDS011;24910;53.248;-6.134;2022-11-28T08:34:18;5.68;;;1.15;;
38683;SDS011;24910;53.248;-6.134;2022-11-28T08:36:47;10.10;;;1.60;;
38683;SDS011;24910;53.248;-6.134;2022-11-28T08:39:18;10.98;;;1.33;;
38683;SDS011;24910;53.248;-6.134;2022-11-28T08:41:51;6.25;;;1.15;;
38683;SDS011;24910;53.248;-6.134;2022-11-28T08:44:26;7.10;;;1.10;;
38683;SDS011;24910;53.248;-6.134;2022-11-28T08:46:56;5.97;;;1.17;;
38683;SDS011;24910;53.248;-6.134;2022-11-28T08:49:26;4.63;;;0.80;;
38683;SDS011;24910;53.248;-6.134;2022-11-28T08:51:55;2.53;;;1.05;;
38683;SDS011;24910;53.248;-6.134;2022-11-28T08:54:26;7.38;;;1.70;;
38683;SDS011;24910;53.248;-6.134;2022-11-28T08:56:55;7.47;;;1.27;;
38683;SDS011;24910;53.248;-6.134;2022-11-28T08:59:25;4.28;;;1.10;;
38683;SDS011;24910;53.248;-6.134;2022-11-28T09:01:54;4.22;;;1.17;;
38683;SDS011;24910;53.248;-6.134;2022-11-28T09:04:23;4.53;;;1.15;;
38683;SDS011;24910;53.248;-6.134;2022-11-28T09:06:52;10.20;;;1.55;;
38683;SDS011;24910;53.248;-6.134;2022-11-28T09:09:21;6.10;;;1.30;;
38683;SDS011;24910;53.248;-6.134;2022-11-28T09:11:56;6.72;;;2.03;;
38683;SDS011;24910;53.248;-6.134;2022-11-28T09:14:25;6.20;;;1.50;;
38683;SDS011;24910;53.248;-6.134;2022-11-28T09:16:54;9.55;;;1.80;;
38683;SDS011;24910;53.248;-6.134;2022-11-28T09:19:24;8.73;;;1.80;;
38683;SDS011;24910;53.248;-6.134;2022-11-28T09:21:53;6.10;;;1.33;;
38683;SDS011;24910;53.248;-6.134;2022-11-28T09:24:24;5.82;;;1.42;;
38683;SDS011;24910;53.248;-6.134;2022-11-28T09:26:53;6.10;;;1.10;;
38683;SDS011;24910;53.248;-6.134;2022-11-28T09:29:23;7.65;;;1.17;;
38683;SDS011;24910;53.248;-6.134;2022-11-28T09:31:54;7.72;;;1.20;;
38683;SDS011;24910;53.248;-6.134;2022-11-28T09:34:23;7.80;;;1.30;;
38683;SDS011;24910;53.248;-6.134;2022-11-28T09:36:53;7.10;;;1.63;;
38683;SDS011;24910;53.248;-6.134;2022-11-28T09:39:28;2.58;;;0.80;;
38683;SDS011;24910;53.248;-6.134;2022-11-28T09:42:19;3.75;;;1.10;;
38683;SDS011;24910;53.248;-6.134;2022-11-28T09:44:56;2.28;;;0.70;;
38683;SDS011;24910;53.248;-6.134;2022-11-28T09:47:28;4.90;;;1.50;;
38683;SDS011;24910;53.248;-6.134;2022-11-28T09:52:30;2.78;;;0.70;;
38683;SDS011;24910;53.248;-6.134;2022-11-28T09:55:08;2.95;;;1.00;;
38683;SDS011;24910;53.248;-6.134;2022-11-28T09:57:42;4.13;;;1.10;;
38683;SDS011;24910;53.248;-6.134;2022-11-28T10:00:16;3.47;;;1.13;;
38683;SDS011;24910;53.248;-6.134;2022-11-28T10:02:51;3.20;;;1.15;;
38683;SDS011;24910;53.248;-6.134;2022-11-28T10:05:47;4.30;;;1.13;;
38683;SDS011;24910;53.248;-6.134;2022-11-28T10:08:28;1.75;;;0.82;;
38683;SDS011;24910;53.248;-6.134;2022-11-28T10:11:08;5.00;;;1.38;;
38683;SDS011;24910;53.248;-6.134;2022-11-28T10:13:48;3.28;;;1.02;;
38683;SDS011;24910;53.248;-6.134;2022-11-28T10:16:40;3.13;;;1.10;;
38683;SDS011;24910;53.248;-6.134;2022-11-28T10:19:15;3.85;;;1.17;;
38683;SDS011;24910;53.248;-6.134;2022-11-28T10:22:08;3.78;;;1.25;;
38683;SDS011;24910;53.248;-6.134;2022-11-28T10:24:44;5.25;;;1.30;;
38683;SDS011;24910;53.248;-6.134;2022-11-28T10:27:17;3.20;;;1.73;;
38683;SDS011;24910;53.248;-6.134;2022-11-28T10:29:54;6.13;;;1.60;;
38683;SDS011;24910;53.248;-6.134;2022-11-28T10:32:32;6.15;;;2.05;;
38683;SDS011;24910;53.248;-6.134;2022-11-28T10:35:04;10.23;;;2.60;;
38683;SDS011;24910;53.248;-6.134;2022-11-28T10:37:37;6.00;;;2.38;;
38683;SDS011;24910;53.248;-6.134;2022-11-28T10:40:15;7.47;;;2.33;;
38683;SDS011;24910;53.248;-6.134;2022-11-28T10:42:48;6.45;;;2.47;;
38683;SDS011;24910;53.248;-6.134;2022-11-28T10:45:25;5.05;;;1.77;;
38683;SDS011;24910;53.248;-6.134;2022-11-28T10:51:14;5.15;;;1.90;;
38683;SDS011;24910;53.248;-6.134;2022-11-28T10:53:51;4.20;;;2.10;;
38683;SDS011;24910;53.248;-6.134;2022-11-28T10:56:33;5.55;;;2.15;;
38683;SDS011;24910;53.248;-6.134;2022-11-28T10:59:10;5.40;;;2.25;;
38683;SDS011;24910;53.248;-6.134;2022-11-28T11:01:48;7.50;;;3.00;;
38683;SDS011;24910;53.248;-6.134;2022-11-28T11:04:20;5.78;;;2.40;;
38683;SDS011;24910;53.248;-6.134;2022-11-28T11:06:59;6.47;;;2.20;;
38683;SDS011;24910;53.248;-6.134;2022-11-28T11:09:43;3.55;;;1.70;;
38683;SDS011;24910;53.248;-6.134;2022-11-28T11:12:15;3.42;;;1.92;;
38683;SDS011;24910;53.248;-6.134;2022-11-28T11:14:47;3.72;;;2.00;;
38683;SDS011;24910;53.248;-6.134;2022-11-28T11:17:26;6.75;;;2.30;;
38683;SDS011;24910;53.248;-6.134;2022-11-28T11:20:12;8.27;;;2.60;;
38683;SDS011;24910;53.248;-6.134;2022-11-28T11:22:54;5.55;;;2.30;;
38683;SDS011;24910;53.248;-6.134;2022-11-28T11:25:25;6.03;;;2.85;;
38683;SDS011;24910;53.248;-6.134;2022-11-28T11:27:55;3.80;;;2.00;;
38683;SDS011;24910;53.248;-6.134;2022-11-28T11:30:27;5.93;;;2.50;;
38683;SDS011;24910;53.248;-6.134;2022-11-28T11:32:59;4.30;;;1.65;;
38683;SDS011;24910;53.248;-6.134;2022-11-28T11:35:33;4.15;;;1.30;;
38683;SDS011;24910;53.248;-6.134;2022-11-28T11:38:15;3.67;;;1.40;;
38683;SDS011;24910;53.248;-6.134;2022-11-28T11:40:46;3.63;;;1.77;;
38683;SDS011;24910;53.248;-6.134;2022-11-28T11:43:23;3.25;;;1.50;;
38683;SDS011;24910;53.248;-6.134;2022-11-28T11:46:03;5.93;;;1.88;;
38683;SDS011;24910;53.248;-6.134;2022-11-28T11:48:35;2.85;;;1.50;;
38683;SDS011;24910;53.248;-6.134;2022-11-28T11:53:47;2.65;;;1.17;;
38683;SDS011;24910;53.248;-6.134;2022-11-28T11:56:27;2.60;;;1.00;;
38683;SDS011;24910;53.248;-6.134;2022-11-28T11:58:58;3.00;;;1.10;;
38683;SDS011;24910;53.248;-6.134;2022-11-28T12:01:30;3.40;;;1.10;;
38683;SDS011;24910;53.248;-6.134;2022-11-28T12:04:02;3.65;;;1.27;;
38683;SDS011;24910;53.248;-6.134;2022-11-28T12:06:55;3.35;;;1.25;;
38683;SDS011;24910;53.248;-6.134;2022-11-28T12:09:30;1.77;;;0.80;;
38683;SDS011;24910;53.248;-6.134;2022-11-28T12:12:08;2.83;;;0.85;;
38683;SDS011;24910;53.248;-6.134;2022-11-28T12:14:41;1.13;;;0.77;;
38683;SDS011;24910;53.248;-6.134;2022-11-28T12:17:15;2.38;;;1.02;;
38683;SDS011;24910;53.248;-6.134;2022-11-28T12:20:20;1.58;;;1.00;;
38683;SDS011;24910;53.248;-6.134;2022-11-28T12:23:01;3.65;;;0.90;;
38683;SDS011;24910;53.248;-6.134;2022-11-28T12:25:44;5.78;;;1.52;;
38683;SDS011;24910;53.248;-6.134;2022-11-28T12:28:20;3.45;;;1.30;;
38683;SDS011;24910;53.248;-6.134;2022-11-28T12:31:00;2.95;;;1.25;;
38683;SDS011;24910;53.248;-6.134;2022-11-28T12:33:42;2.85;;;1.08;;
38683;SDS011;24910;53.248;-6.134;2022-11-28T12:36:19;1.48;;;1.15;;
38683;SDS011;24910;53.248;-6.134;2022-11-28T12:39:02;4.50;;;1.30;;
38683;SDS011;24910;53.248;-6.134;2022-11-28T12:44:53;4.72;;;1.50;;
38683;SDS011;24910;53.248;-6.134;2022-11-28T12:47:39;6.18;;;2.05;;
38683;SDS011;24910;53.248;-6.134;2022-11-28T12:50:16;4.40;;;2.17;;
38683;SDS011;24910;53.248;-6.134;2022-11-28T12:52:55;4.53;;;2.08;;
38683;SDS011;24910;53.248;-6.134;2022-11-28T12:55:41;4.47;;;1.75;;
38683;SDS011;24910;53.248;-6.134;2022-11-28T12:58:17;4.20;;;2.00;;
38683;SDS011;24910;53.248;-6.134;2022-11-28T13:00:53;3.97;;;1.98;;
38683;SDS011;24910;53.248;-6.134;2022-11-28T13:03:32;4.15;;;2.08;;
38683;SDS011;24910;53.248;-6.134;2022-11-28T13:06:10;4.03;;;2.22;;
38683;SDS011;24910;53.248;-6.134;2022-11-28T13:08:51;4.05;;;2.40;;
38683;SDS011;24910;53.248;-6.134;2022-11-28T13:11:38;7.00;;;3.60;;
38683;SDS011;24910;53.248;-6.134;2022-11-28T13:14:18;7.30;;;3.20;;
38683;SDS011;24910;53.248;-6.134;2022-11-28T13:16:58;8.83;;;3.47;;
38683;SDS011;24910;53.248;-6.134;2022-11-28T13:19:36;6.70;;;3.47;;
38683;SDS011;24910;53.248;-6.134;2022-11-28T13:22:13;8.98;;;3.22;;
38683;SDS011;24910;53.248;-6.134;2022-11-28T13:24:52;7.45;;;3.50;;
38683;SDS011;24910;53.248;-6.134;2022-11-28T13:27:31;5.53;;;3.00;;
38683;SDS011;24910;53.248;-6.134;2022-11-28T13:30:14;5.78;;;2.90;;
38683;SDS011;24910;53.248;-6.134;2022-11-28T13:32:49;6.78;;;2.85;;
38683;SDS011;24910;53.248;-6.134;2022-11-28T13:35:26;4.57;;;2.92;;
38683;SDS011;24910;53.248;-6.134;2022-11-28T13:37:57;4.93;;;2.67;;
38683;SDS011;24910;53.248;-6.134;2022-11-28T13:40:53;4.55;;;2.65;;
38683;SDS011;24910;53.248;-6.134;2022-11-28T13:43:37;5.72;;;2.47;;
38683;SDS011;24910;53.248;-6.134;2022-11-28T13:46:12;5.43;;;2.25;;
38683;SDS011;24910;53.248;-6.134;2022-11-28T13:48:59;4.22;;;1.80;;
38683;SDS011;24910;53.248;-6.134;2022-11-28T13:51:42;3.10;;;1.88;;
38683;SDS011;24910;53.248;-6.134;2022-11-28T14:00:20;5.45;;;1.88;;
38683;SDS011;24910;53.248;-6.134;2022-11-28T14:02:51;5.25;;;2.97;;
38683;SDS011;24910;53.248;-6.134;2022-11-28T14:05:29;4.47;;;1.80;;
38683;SDS011;24910;53.248;-6.134;2022-11-28T14:08:01;5.00;;;1.67;;
38683;SDS011;24910;53.248;-6.134;2022-11-28T14:13:48;5.35;;;1.70;;
38683;SDS011;24910;53.248;-6.134;2022-11-28T14:16:38;3.75;;;1.73;;
38683;SDS011;24910;53.248;-6.134;2022-11-28T14:19:22;6.05;;;1.65;;
38683;SDS011;24910;53.248;-6.134;2022-11-28T14:22:01;2.60;;;1.70;;
38683;SDS011;24910;53.248;-6.134;2022-11-28T14:24:50;4.93;;;1.90;;
38683;SDS011;24910;53.248;-6.134;2022-11-28T14:27:25;6.47;;;2.10;;
38683;SDS011;24910;53.248;-6.134;2022-11-28T14:29:57;3.47;;;2.08;;
38683;SDS011;24910;53.248;-6.134;2022-11-28T14:32:33;4.10;;;2.10;;
38683;SDS011;24910;53.248;-6.134;2022-11-28T14:35:11;6.03;;;2.60;;
38683;SDS011;24910;53.248;-6.134;2022-11-28T14:37:48;6.22;;;2.30;;
38683;SDS011;24910;53.248;-6.134;2022-11-28T14:43:34;8.35;;;3.97;;
38683;SDS011;24910;53.248;-6.134;2022-11-28T14:49:18;6.60;;;3.33;;
38683;SDS011;24910;53.248;-6.134;2022-11-28T14:52:08;8.20;;;3.53;;
38683;SDS011;24910;53.248;-6.134;2022-11-28T14:55:13;6.63;;;3.67;;
38683;SDS011;24910;53.248;-6.134;2022-11-28T14:57:56;6.35;;;3.58;;
38683;SDS011;24910;53.248;-6.134;2022-11-28T15:00:27;7.22;;;3.80;;
38683;SDS011;24910;53.248;-6.134;2022-11-28T15:03:04;11.05;;;4.20;;
38683;SDS011;24910;53.248;-6.134;2022-11-28T15:05:46;10.02;;;4.07;;
38683;SDS011;24910;53.248;-6.134;2022-11-28T15:08:31;9.55;;;3.63;;
38683;SDS011;24910;53.248;-6.134;2022-11-28T15:11:26;8.77;;;4.00;;
38683;SDS011;24910;53.248;-6.134;2022-11-28T15:14:25;10.60;;;4.93;;
38683;SDS011;24910;53.248;-6.134;2022-11-28T15:16:59;9.85;;;4.72;;
38683;SDS011;24910;53.248;-6.134;2022-11-28T15:19:31;11.52;;;5.15;;
38683;SDS011;24910;53.248;-6.134;2022-11-28T15:22:08;11.27;;;5.15;;
38683;SDS011;24910;53.248;-6.134;2022-11-28T15:24:56;12.95;;;5.50;;
38683;SDS011;24910;53.248;-6.134;2022-11-28T15:27:27;13.60;;;5.93;;
38683;SDS011;24910;53.248;-6.134;2022-11-28T15:29:58;17.98;;;6.10;;
38683;SDS011;24910;53.248;-6.134;2022-11-28T15:32:29;10.90;;;5.80;;
38683;SDS011;24910;53.248;-6.134;2022-11-28T15:35:02;13.43;;;5.68;;
38683;SDS011;24910;53.248;-6.134;2022-11-28T15:37:44;15.50;;;6.32;;
38683;SDS011;24910;53.248;-6.134;2022-11-28T15:40:16;12.77;;;5.97;;
38683;SDS011;24910;53.248;-6.134;2022-11-28T15:42:47;14.75;;;6.18;;
38683;SDS011;24910;53.248;-6.134;2022-11-28T15:45:21;14.10;;;6.30;;
38683;SDS011;24910;53.248;-6.134;2022-11-28T15:47:53;13.77;;;7.20;;
38683;SDS011;24910;53.248;-6.134;2022-11-28T15:52:56;16.52;;;6.72;;